sensor_id;sensor_type;location;lat;lon;timestamp;P1;durP1;ratioP1;P2;durP2;ratioP2
50683;SDS011;36654;45.042;38.994;2022-12-07T00:01:13;12.95;;;7.75;;
50683;SDS011;36654;45.042;38.994;2022-12-07T00:03:47;11.43;;;7.80;;
50683;SDS011;36654;45.042;38.994;2022-12-07T00:06:14;13.65;;;7.32;;
50683;SDS011;36654;45.042;38.994;2022-12-07T00:08:41;13.82;;;7.68;;
50683;SDS011;36654;45.042;38.994;2022-12-07T00:11:08;17.77;;;8.60;;
50683;SDS011;36654;45.042;38.994;2022-12-07T00:13:36;11.80;;;6.95;;
50683;SDS011;36654;45.042;38.994;2022-12-07T00:16:04;11.63;;;6.15;;
50683;SDS011;36654;45.042;38.994;2022-12-07T00:18:35;10.85;;;6.65;;
50683;SDS011;36654;45.042;38.994;2022-12-07T00:21:02;13.32;;;8.40;;
50683;SDS011;36654;45.042;38.994;2022-12-07T00:23:29;16.13;;;8.27;;
50683;SDS011;36654;45.042;38.994;2022-12-07T00:25:55;15.05;;;8.13;;
50683;SDS011;36654;45.042;38.994;2022-12-07T00:28:21;14.95;;;8.40;;
50683;SDS011;36654;45.042;38.994;2022-12-07T00:30:47;14.70;;;6.93;;
50683;SDS011;36654;45.042;38.994;2022-12-07T00:33:12;14.27;;;6.85;;
50683;SDS011;36654;45.042;38.994;2022-12-07T00:35:38;12.43;;;7.47;;
50683;SDS011;36654;45.042;38.994;2022-12-07T00:38:04;13.38;;;7.97;;
50683;SDS011;36654;45.042;38.994;2022-12-07T00:40:29;14.38;;;7.50;;
50683;SDS011;36654;45.042;38.994;2022-12-07T00:42:55;15.35;;;7.68;;
50683;SDS011;36654;45.042;38.994;2022-12-07T00:45:20;12.48;;;7.75;;
50683;SDS011;36654;45.042;38.994;2022-12-07T00:47:46;11.57;;;6.63;;
50683;SDS011;36654;45.042;38.994;2022-12-07T00:50:12;11.18;;;6.07;;
50683;SDS011;36654;45.042;38.994;2022-12-07T00:52:37;13.18;;;7.78;;
50683;SDS011;36654;45.042;38.994;2022-12-07T00:55:03;14.00;;;7.32;;
50683;SDS011;36654;45.042;38.994;2022-12-07T00:57:30;9.18;;;6.43;;
50683;SDS011;36654;45.042;38.994;2022-12-07T00:59:55;11.68;;;6.88;;
50683;SDS011;36654;45.042;38.994;2022-12-07T01:02:22;13.90;;;7.60;;
50683;SDS011;36654;45.042;38.994;2022-12-07T01:04:48;12.90;;;7.97;;
50683;SDS011;36654;45.042;38.994;2022-12-07T01:07:14;17.55;;;7.53;;
50683;SDS011;36654;45.042;38.994;2022-12-07T01:09:39;11.65;;;6.78;;
50683;SDS011;36654;45.042;38.994;2022-12-07T01:12:05;12.23;;;7.10;;
50683;SDS011;36654;45.042;38.994;2022-12-07T01:14:31;13.98;;;7.75;;
50683;SDS011;36654;45.042;38.994;2022-12-07T01:16:56;13.63;;;7.63;;
50683;SDS011;36654;45.042;38.994;2022-12-07T01:19:22;10.63;;;6.80;;
50683;SDS011;36654;45.042;38.994;2022-12-07T01:21:47;14.27;;;8.00;;
50683;SDS011;36654;45.042;38.994;2022-12-07T01:24:13;21.52;;;8.40;;
50683;SDS011;36654;45.042;38.994;2022-12-07T01:26:39;13.85;;;7.10;;
50683;SDS011;36654;45.042;38.994;2022-12-07T01:29:05;9.35;;;7.05;;
50683;SDS011;36654;45.042;38.994;2022-12-07T01:31:31;9.63;;;6.15;;
50683;SDS011;36654;45.042;38.994;2022-12-07T01:33:57;12.43;;;6.53;;
50683;SDS011;36654;45.042;38.994;2022-12-07T01:38:55;13.25;;;6.93;;
50683;SDS011;36654;45.042;38.994;2022-12-07T01:41:24;11.38;;;6.90;;
50683;SDS011;36654;45.042;38.994;2022-12-07T01:44:11;11.40;;;6.55;;
50683;SDS011;36654;45.042;38.994;2022-12-07T01:46:46;14.63;;;6.90;;
50683;SDS011;36654;45.042;38.994;2022-12-07T01:49:18;11.30;;;6.68;;
50683;SDS011;36654;45.042;38.994;2022-12-07T01:51:51;12.05;;;7.13;;
50683;SDS011;36654;45.042;38.994;2022-12-07T01:54:20;12.50;;;6.47;;
50683;SDS011;36654;45.042;38.994;2022-12-07T01:56:49;14.23;;;6.95;;
50683;SDS011;36654;45.042;38.994;2022-12-07T01:59:18;12.35;;;6.55;;
50683;SDS011;36654;45.042;38.994;2022-12-07T02:01:47;10.82;;;6.47;;
50683;SDS011;36654;45.042;38.994;2022-12-07T02:04:13;13.18;;;6.90;;
50683;SDS011;36654;45.042;38.994;2022-12-07T02:06:39;10.65;;;6.75;;
50683;SDS011;36654;45.042;38.994;2022-12-07T02:09:06;11.52;;;5.68;;
50683;SDS011;36654;45.042;38.994;2022-12-07T02:11:32;14.63;;;6.78;;
50683;SDS011;36654;45.042;38.994;2022-12-07T02:13:58;12.02;;;7.50;;
50683;SDS011;36654;45.042;38.994;2022-12-07T02:30:15;12.15;;;6.40;;
50683;SDS011;36654;45.042;38.994;2022-12-07T02:32:48;12.32;;;7.28;;
50683;SDS011;36654;45.042;38.994;2022-12-07T02:35:28;12.27;;;6.80;;
50683;SDS011;36654;45.042;38.994;2022-12-07T02:43:28;11.13;;;6.20;;
50683;SDS011;36654;45.042;38.994;2022-12-07T02:46:04;10.48;;;6.57;;
50683;SDS011;36654;45.042;38.994;2022-12-07T02:48:34;15.07;;;7.38;;
50683;SDS011;36654;45.042;38.994;2022-12-07T02:51:01;13.82;;;7.07;;
50683;SDS011;36654;45.042;38.994;2022-12-07T03:01:16;15.05;;;7.00;;
50683;SDS011;36654;45.042;38.994;2022-12-07T03:03:54;12.45;;;6.15;;
50683;SDS011;36654;45.042;38.994;2022-12-07T03:14:13;12.63;;;6.95;;
50683;SDS011;36654;45.042;38.994;2022-12-07T03:16:43;15.15;;;7.45;;
50683;SDS011;36654;45.042;38.994;2022-12-07T03:19:18;14.40;;;6.88;;
50683;SDS011;36654;45.042;38.994;2022-12-07T03:21:49;14.98;;;6.72;;
50683;SDS011;36654;45.042;38.994;2022-12-07T03:24:23;11.95;;;6.97;;
50683;SDS011;36654;45.042;38.994;2022-12-07T03:26:54;9.20;;;5.65;;
50683;SDS011;36654;45.042;38.994;2022-12-07T03:29:46;13.23;;;6.18;;
50683;SDS011;36654;45.042;38.994;2022-12-07T03:33:07;10.68;;;5.90;;
50683;SDS011;36654;45.042;38.994;2022-12-07T03:35:40;10.73;;;6.15;;
50683;SDS011;36654;45.042;38.994;2022-12-07T03:43:27;12.70;;;6.78;;
50683;SDS011;36654;45.042;38.994;2022-12-07T03:48:43;14.20;;;6.78;;
50683;SDS011;36654;45.042;38.994;2022-12-07T03:51:21;12.73;;;6.22;;
50683;SDS011;36654;45.042;38.994;2022-12-07T03:54:00;13.88;;;6.95;;
50683;SDS011;36654;45.042;38.994;2022-12-07T03:56:32;9.13;;;5.40;;
50683;SDS011;36654;45.042;38.994;2022-12-07T03:58:59;13.57;;;7.10;;
50683;SDS011;36654;45.042;38.994;2022-12-07T04:01:25;11.52;;;6.40;;
50683;SDS011;36654;45.042;38.994;2022-12-07T04:03:51;13.18;;;6.72;;
50683;SDS011;36654;45.042;38.994;2022-12-07T04:06:16;11.45;;;6.93;;
50683;SDS011;36654;45.042;38.994;2022-12-07T04:08:42;11.65;;;6.38;;
50683;SDS011;36654;45.042;38.994;2022-12-07T04:11:08;14.27;;;6.53;;
50683;SDS011;36654;45.042;38.994;2022-12-07T04:13:33;12.43;;;6.50;;
50683;SDS011;36654;45.042;38.994;2022-12-07T04:16:19;15.50;;;7.38;;
50683;SDS011;36654;45.042;38.994;2022-12-07T04:18:45;18.90;;;7.15;;
50683;SDS011;36654;45.042;38.994;2022-12-07T04:21:11;13.52;;;7.20;;
50683;SDS011;36654;45.042;38.994;2022-12-07T04:23:36;10.60;;;6.03;;
50683;SDS011;36654;45.042;38.994;2022-12-07T04:26:02;13.48;;;7.35;;
50683;SDS011;36654;45.042;38.994;2022-12-07T04:28:27;11.85;;;7.07;;
50683;SDS011;36654;45.042;38.994;2022-12-07T04:30:53;12.85;;;6.07;;
50683;SDS011;36654;45.042;38.994;2022-12-07T04:33:19;14.05;;;6.68;;
50683;SDS011;36654;45.042;38.994;2022-12-07T04:35:44;13.70;;;7.43;;
50683;SDS011;36654;45.042;38.994;2022-12-07T04:38:10;21.45;;;9.00;;
50683;SDS011;36654;45.042;38.994;2022-12-07T04:40:35;14.32;;;6.80;;
50683;SDS011;36654;45.042;38.994;2022-12-07T04:43:01;15.95;;;6.70;;
50683;SDS011;36654;45.042;38.994;2022-12-07T04:45:27;13.32;;;6.97;;
50683;SDS011;36654;45.042;38.994;2022-12-07T04:47:52;16.80;;;6.78;;
50683;SDS011;36654;45.042;38.994;2022-12-07T04:50:18;14.55;;;7.53;;
50683;SDS011;36654;45.042;38.994;2022-12-07T04:52:43;16.92;;;7.85;;
50683;SDS011;36654;45.042;38.994;2022-12-07T04:55:09;19.00;;;8.27;;
50683;SDS011;36654;45.042;38.994;2022-12-07T04:57:35;18.70;;;7.93;;
50683;SDS011;36654;45.042;38.994;2022-12-07T05:00:00;14.60;;;7.03;;
50683;SDS011;36654;45.042;38.994;2022-12-07T05:02:26;15.95;;;7.25;;
50683;SDS011;36654;45.042;38.994;2022-12-07T05:04:52;21.88;;;8.70;;
50683;SDS011;36654;45.042;38.994;2022-12-07T05:07:17;20.15;;;8.63;;
50683;SDS011;36654;45.042;38.994;2022-12-07T05:09:43;17.55;;;7.78;;
50683;SDS011;36654;45.042;38.994;2022-12-07T05:12:09;17.20;;;9.77;;
50683;SDS011;36654;45.042;38.994;2022-12-07T05:14:34;16.95;;;7.97;;
50683;SDS011;36654;45.042;38.994;2022-12-07T05:17:00;16.40;;;7.28;;
50683;SDS011;36654;45.042;38.994;2022-12-07T05:19:26;15.25;;;7.78;;
50683;SDS011;36654;45.042;38.994;2022-12-07T05:21:51;15.02;;;7.38;;
50683;SDS011;36654;45.042;38.994;2022-12-07T05:24:17;12.25;;;7.55;;
50683;SDS011;36654;45.042;38.994;2022-12-07T05:26:43;15.93;;;8.77;;
50683;SDS011;36654;45.042;38.994;2022-12-07T05:29:13;17.67;;;8.57;;
50683;SDS011;36654;45.042;38.994;2022-12-07T05:31:40;22.27;;;8.80;;
50683;SDS011;36654;45.042;38.994;2022-12-07T05:34:06;23.30;;;9.27;;
50683;SDS011;36654;45.042;38.994;2022-12-07T05:36:32;23.30;;;8.45;;
50683;SDS011;36654;45.042;38.994;2022-12-07T05:38:58;22.45;;;10.65;;
50683;SDS011;36654;45.042;38.994;2022-12-07T05:41:24;17.83;;;7.93;;
50683;SDS011;36654;45.042;38.994;2022-12-07T05:44:08;16.38;;;8.18;;
50683;SDS011;36654;45.042;38.994;2022-12-07T05:46:33;21.02;;;8.45;;
50683;SDS011;36654;45.042;38.994;2022-12-07T05:48:59;15.88;;;8.27;;
50683;SDS011;36654;45.042;38.994;2022-12-07T05:51:26;19.52;;;8.55;;
50683;SDS011;36654;45.042;38.994;2022-12-07T05:53:51;20.55;;;9.23;;
50683;SDS011;36654;45.042;38.994;2022-12-07T05:56:17;18.83;;;9.63;;
50683;SDS011;36654;45.042;38.994;2022-12-07T05:58:43;16.60;;;8.93;;
50683;SDS011;36654;45.042;38.994;2022-12-07T06:01:27;17.80;;;7.95;;
50683;SDS011;36654;45.042;38.994;2022-12-07T06:03:53;18.08;;;7.97;;
50683;SDS011;36654;45.042;38.994;2022-12-07T06:06:19;14.52;;;7.90;;
50683;SDS011;36654;45.042;38.994;2022-12-07T06:08:44;17.98;;;8.07;;
50683;SDS011;36654;45.042;38.994;2022-12-07T06:11:10;14.95;;;7.05;;
50683;SDS011;36654;45.042;38.994;2022-12-07T06:13:54;18.13;;;8.35;;
50683;SDS011;36654;45.042;38.994;2022-12-07T06:16:20;17.13;;;8.13;;
50683;SDS011;36654;45.042;38.994;2022-12-07T06:18:45;13.85;;;7.53;;
50683;SDS011;36654;45.042;38.994;2022-12-07T06:21:11;17.58;;;8.70;;
50683;SDS011;36654;45.042;38.994;2022-12-07T06:23:37;21.95;;;9.77;;
50683;SDS011;36654;45.042;38.994;2022-12-07T06:26:02;15.65;;;7.45;;
50683;SDS011;36654;45.042;38.994;2022-12-07T06:28:28;23.15;;;8.75;;
50683;SDS011;36654;45.042;38.994;2022-12-07T06:30:57;19.27;;;8.25;;
50683;SDS011;36654;45.042;38.994;2022-12-07T06:33:24;17.10;;;8.18;;
50683;SDS011;36654;45.042;38.994;2022-12-07T06:35:50;21.13;;;9.50;;
50683;SDS011;36654;45.042;38.994;2022-12-07T06:38:16;18.80;;;9.15;;
50683;SDS011;36654;45.042;38.994;2022-12-07T06:40:41;20.88;;;8.63;;
50683;SDS011;36654;45.042;38.994;2022-12-07T06:43:07;26.67;;;9.15;;
50683;SDS011;36654;45.042;38.994;2022-12-07T06:45:33;17.52;;;8.45;;
50683;SDS011;36654;45.042;38.994;2022-12-07T06:47:58;21.05;;;8.85;;
50683;SDS011;36654;45.042;38.994;2022-12-07T06:50:24;20.52;;;9.18;;
50683;SDS011;36654;45.042;38.994;2022-12-07T06:52:50;18.08;;;8.98;;
50683;SDS011;36654;45.042;38.994;2022-12-07T06:55:16;24.55;;;9.60;;
50683;SDS011;36654;45.042;38.994;2022-12-07T06:57:41;24.77;;;11.68;;
50683;SDS011;36654;45.042;38.994;2022-12-07T07:00:07;16.80;;;8.77;;
50683;SDS011;36654;45.042;38.994;2022-12-07T07:02:33;23.45;;;9.23;;
50683;SDS011;36654;45.042;38.994;2022-12-07T07:04:59;23.27;;;10.52;;
50683;SDS011;36654;45.042;38.994;2022-12-07T07:07:24;21.90;;;10.27;;
50683;SDS011;36654;45.042;38.994;2022-12-07T07:09:50;25.00;;;9.95;;
50683;SDS011;36654;45.042;38.994;2022-12-07T07:12:15;24.83;;;11.70;;
50683;SDS011;36654;45.042;38.994;2022-12-07T07:14:41;20.35;;;10.10;;
50683;SDS011;36654;45.042;38.994;2022-12-07T07:17:08;21.60;;;10.35;;
50683;SDS011;36654;45.042;38.994;2022-12-07T07:19:33;24.42;;;11.23;;
50683;SDS011;36654;45.042;38.994;2022-12-07T07:21:59;23.55;;;9.85;;
50683;SDS011;36654;45.042;38.994;2022-12-07T07:24:25;26.00;;;11.25;;
50683;SDS011;36654;45.042;38.994;2022-12-07T07:26:51;22.20;;;11.32;;
50683;SDS011;36654;45.042;38.994;2022-12-07T07:29:16;21.17;;;11.40;;
50683;SDS011;36654;45.042;38.994;2022-12-07T07:31:42;20.88;;;11.18;;
50683;SDS011;36654;45.042;38.994;2022-12-07T07:34:08;23.23;;;11.65;;
50683;SDS011;36654;45.042;38.994;2022-12-07T07:36:33;23.98;;;12.50;;
50683;SDS011;36654;45.042;38.994;2022-12-07T07:38:59;27.42;;;13.05;;
50683;SDS011;36654;45.042;38.994;2022-12-07T07:41:25;21.25;;;10.68;;
50683;SDS011;36654;45.042;38.994;2022-12-07T07:43:50;26.75;;;11.13;;
50683;SDS011;36654;45.042;38.994;2022-12-07T07:46:16;29.85;;;12.27;;
50683;SDS011;36654;45.042;38.994;2022-12-07T07:48:41;23.63;;;11.95;;
50683;SDS011;36654;45.042;38.994;2022-12-07T07:51:07;24.55;;;10.63;;
50683;SDS011;36654;45.042;38.994;2022-12-07T07:53:33;24.45;;;11.43;;
50683;SDS011;36654;45.042;38.994;2022-12-07T07:56:02;28.63;;;12.90;;
50683;SDS011;36654;45.042;38.994;2022-12-07T07:58:33;24.00;;;10.30;;
50683;SDS011;36654;45.042;38.994;2022-12-07T08:01:06;18.13;;;10.63;;
50683;SDS011;36654;45.042;38.994;2022-12-07T08:03:32;20.08;;;10.57;;
50683;SDS011;36654;45.042;38.994;2022-12-07T08:05:58;20.00;;;10.75;;
50683;SDS011;36654;45.042;38.994;2022-12-07T08:08:24;21.60;;;10.73;;
50683;SDS011;36654;45.042;38.994;2022-12-07T08:10:49;15.85;;;8.90;;
50683;SDS011;36654;45.042;38.994;2022-12-07T08:13:16;20.63;;;10.88;;
50683;SDS011;36654;45.042;38.994;2022-12-07T08:15:42;22.55;;;9.68;;
50683;SDS011;36654;45.042;38.994;2022-12-07T08:18:09;22.70;;;9.73;;
50683;SDS011;36654;45.042;38.994;2022-12-07T08:20:36;20.60;;;10.18;;
50683;SDS011;36654;45.042;38.994;2022-12-07T08:23:03;22.60;;;11.13;;
50683;SDS011;36654;45.042;38.994;2022-12-07T08:25:29;20.00;;;10.48;;
50683;SDS011;36654;45.042;38.994;2022-12-07T08:27:55;20.10;;;10.63;;
50683;SDS011;36654;45.042;38.994;2022-12-07T08:30:21;21.98;;;11.05;;
50683;SDS011;36654;45.042;38.994;2022-12-07T08:32:47;24.40;;;10.95;;
50683;SDS011;36654;45.042;38.994;2022-12-07T08:35:13;17.65;;;8.85;;
50683;SDS011;36654;45.042;38.994;2022-12-07T08:37:39;23.67;;;11.30;;
50683;SDS011;36654;45.042;38.994;2022-12-07T08:40:06;21.67;;;10.63;;
50683;SDS011;36654;45.042;38.994;2022-12-07T08:42:33;17.20;;;9.77;;
50683;SDS011;36654;45.042;38.994;2022-12-07T08:45:06;19.05;;;9.82;;
50683;SDS011;36654;45.042;38.994;2022-12-07T08:47:34;22.65;;;10.10;;
50683;SDS011;36654;45.042;38.994;2022-12-07T08:50:02;22.33;;;10.80;;
50683;SDS011;36654;45.042;38.994;2022-12-07T08:52:30;25.15;;;10.95;;
50683;SDS011;36654;45.042;38.994;2022-12-07T08:54:59;24.00;;;10.95;;
50683;SDS011;36654;45.042;38.994;2022-12-07T08:57:27;23.58;;;10.20;;
50683;SDS011;36654;45.042;38.994;2022-12-07T08:59:53;22.88;;;10.40;;
50683;SDS011;36654;45.042;38.994;2022-12-07T09:02:19;18.42;;;9.57;;
50683;SDS011;36654;45.042;38.994;2022-12-07T09:04:45;22.65;;;11.88;;
50683;SDS011;36654;45.042;38.994;2022-12-07T09:07:10;23.23;;;10.88;;
50683;SDS011;36654;45.042;38.994;2022-12-07T09:09:36;22.02;;;10.90;;
50683;SDS011;36654;45.042;38.994;2022-12-07T09:12:02;25.15;;;11.25;;
50683;SDS011;36654;45.042;38.994;2022-12-07T09:14:28;23.02;;;10.80;;
50683;SDS011;36654;45.042;38.994;2022-12-07T09:16:54;22.08;;;10.50;;
50683;SDS011;36654;45.042;38.994;2022-12-07T09:19:19;20.45;;;11.13;;
50683;SDS011;36654;45.042;38.994;2022-12-07T09:21:45;26.77;;;11.55;;
50683;SDS011;36654;45.042;38.994;2022-12-07T09:24:11;22.73;;;10.57;;
50683;SDS011;36654;45.042;38.994;2022-12-07T09:26:41;24.77;;;12.32;;
50683;SDS011;36654;45.042;38.994;2022-12-07T09:29:07;29.17;;;11.95;;
50683;SDS011;36654;45.042;38.994;2022-12-07T09:31:32;25.98;;;11.77;;
50683;SDS011;36654;45.042;38.994;2022-12-07T09:34:00;29.92;;;12.60;;
50683;SDS011;36654;45.042;38.994;2022-12-07T09:36:27;52.22;;;28.55;;
50683;SDS011;36654;45.042;38.994;2022-12-07T09:38:54;31.75;;;14.38;;
50683;SDS011;36654;45.042;38.994;2022-12-07T09:41:20;29.13;;;12.25;;
50683;SDS011;36654;45.042;38.994;2022-12-07T09:43:47;21.25;;;11.15;;
50683;SDS011;36654;45.042;38.994;2022-12-07T09:46:14;29.60;;;13.43;;
50683;SDS011;36654;45.042;38.994;2022-12-07T09:48:44;31.27;;;12.68;;
50683;SDS011;36654;45.042;38.994;2022-12-07T09:51:17;27.17;;;12.18;;
50683;SDS011;36654;45.042;38.994;2022-12-07T09:53:45;27.92;;;12.63;;
50683;SDS011;36654;45.042;38.994;2022-12-07T09:56:16;22.00;;;12.60;;
50683;SDS011;36654;45.042;38.994;2022-12-07T09:58:43;28.27;;;12.13;;
50683;SDS011;36654;45.042;38.994;2022-12-07T10:01:12;26.85;;;11.52;;
50683;SDS011;36654;45.042;38.994;2022-12-07T10:03:45;25.15;;;11.48;;
50683;SDS011;36654;45.042;38.994;2022-12-07T10:06:16;27.50;;;11.48;;
50683;SDS011;36654;45.042;38.994;2022-12-07T10:08:41;28.55;;;12.23;;
50683;SDS011;36654;45.042;38.994;2022-12-07T10:11:09;19.52;;;11.02;;
50683;SDS011;36654;45.042;38.994;2022-12-07T10:13:40;28.95;;;12.35;;
50683;SDS011;36654;45.042;38.994;2022-12-07T10:18:56;26.42;;;12.35;;
50683;SDS011;36654;45.042;38.994;2022-12-07T10:21:23;34.03;;;12.43;;
50683;SDS011;36654;45.042;38.994;2022-12-07T10:31:39;22.05;;;11.45;;
50683;SDS011;36654;45.042;38.994;2022-12-07T10:34:25;25.45;;;11.15;;
50683;SDS011;36654;45.042;38.994;2022-12-07T10:37:06;28.48;;;11.52;;
50683;SDS011;36654;45.042;38.994;2022-12-07T10:39:54;20.00;;;10.73;;
50683;SDS011;36654;45.042;38.994;2022-12-07T10:42:26;27.48;;;12.90;;
50683;SDS011;36654;45.042;38.994;2022-12-07T10:50:36;20.90;;;10.95;;
50683;SDS011;36654;45.042;38.994;2022-12-07T10:58:51;22.08;;;10.75;;
50683;SDS011;36654;45.042;38.994;2022-12-07T11:02:00;23.33;;;11.40;;
50683;SDS011;36654;45.042;38.994;2022-12-07T11:07:47;18.42;;;9.82;;
50683;SDS011;36654;45.042;38.994;2022-12-07T11:10:50;21.90;;;11.00;;
50683;SDS011;36654;45.042;38.994;2022-12-07T11:13:48;25.90;;;11.25;;
50683;SDS011;36654;45.042;38.994;2022-12-07T11:16:48;20.80;;;10.35;;
50683;SDS011;36654;45.042;38.994;2022-12-07T11:19:24;18.73;;;10.07;;
50683;SDS011;36654;45.042;38.994;2022-12-07T11:22:20;21.50;;;11.07;;
50683;SDS011;36654;45.042;38.994;2022-12-07T11:25:00;18.35;;;10.00;;
50683;SDS011;36654;45.042;38.994;2022-12-07T11:27:47;25.00;;;12.10;;
50683;SDS011;36654;45.042;38.994;2022-12-07T11:30:42;24.50;;;11.20;;
50683;SDS011;36654;45.042;38.994;2022-12-07T11:33:29;20.95;;;10.85;;
50683;SDS011;36654;45.042;38.994;2022-12-07T11:39:00;22.27;;;10.18;;
50683;SDS011;36654;45.042;38.994;2022-12-07T11:41:31;21.25;;;10.45;;
50683;SDS011;36654;45.042;38.994;2022-12-07T11:44:07;24.92;;;11.75;;
50683;SDS011;36654;45.042;38.994;2022-12-07T11:47:30;24.13;;;11.00;;
50683;SDS011;36654;45.042;38.994;2022-12-07T11:52:22;24.10;;;10.15;;
50683;SDS011;36654;45.042;38.994;2022-12-07T11:54:56;26.85;;;10.45;;
50683;SDS011;36654;45.042;38.994;2022-12-07T11:57:35;17.63;;;9.70;;
50683;SDS011;36654;45.042;38.994;2022-12-07T12:00:12;25.60;;;10.05;;
50683;SDS011;36654;45.042;38.994;2022-12-07T12:02:58;22.70;;;11.07;;
50683;SDS011;36654;45.042;38.994;2022-12-07T12:05:28;20.92;;;9.45;;
50683;SDS011;36654;45.042;38.994;2022-12-07T12:08:17;19.65;;;9.75;;
50683;SDS011;36654;45.042;38.994;2022-12-07T12:13:54;20.10;;;10.10;;
50683;SDS011;36654;45.042;38.994;2022-12-07T12:16:43;21.58;;;10.90;;
50683;SDS011;36654;45.042;38.994;2022-12-07T12:22:18;22.30;;;10.43;;
50683;SDS011;36654;45.042;38.994;2022-12-07T12:24:49;23.92;;;11.32;;
50683;SDS011;36654;45.042;38.994;2022-12-07T12:27:31;23.45;;;12.40;;
50683;SDS011;36654;45.042;38.994;2022-12-07T12:30:01;22.70;;;9.88;;
50683;SDS011;36654;45.042;38.994;2022-12-07T12:35:21;22.48;;;9.80;;
50683;SDS011;36654;45.042;38.994;2022-12-07T12:40:55;21.02;;;10.00;;
50683;SDS011;36654;45.042;38.994;2022-12-07T12:43:40;27.52;;;9.75;;
50683;SDS011;36654;45.042;38.994;2022-12-07T12:54:37;23.60;;;10.75;;
50683;SDS011;36654;45.042;38.994;2022-12-07T13:10:08;24.55;;;11.73;;
50683;SDS011;36654;45.042;38.994;2022-12-07T13:13:03;24.08;;;11.77;;
50683;SDS011;36654;45.042;38.994;2022-12-07T13:20:50;34.92;;;14.30;;
50683;SDS011;36654;45.042;38.994;2022-12-07T13:23:22;29.25;;;14.55;;
50683;SDS011;36654;45.042;38.994;2022-12-07T13:28:38;34.50;;;15.35;;
50683;SDS011;36654;45.042;38.994;2022-12-07T13:33:49;34.75;;;15.35;;
50683;SDS011;36654;45.042;38.994;2022-12-07T13:36:22;30.05;;;15.57;;
50683;SDS011;36654;45.042;38.994;2022-12-07T13:38:53;35.50;;;13.82;;
50683;SDS011;36654;45.042;38.994;2022-12-07T13:41:25;29.98;;;13.73;;
50683;SDS011;36654;45.042;38.994;2022-12-07T13:49:25;26.92;;;13.05;;
50683;SDS011;36654;45.042;38.994;2022-12-07T13:52:08;32.45;;;13.88;;
50683;SDS011;36654;45.042;38.994;2022-12-07T13:57:31;30.98;;;13.85;;
50683;SDS011;36654;45.042;38.994;2022-12-07T14:02:28;29.10;;;13.85;;
50683;SDS011;36654;45.042;38.994;2022-12-07T14:05:09;31.60;;;12.80;;
50683;SDS011;36654;45.042;38.994;2022-12-07T14:08:00;28.92;;;12.88;;
50683;SDS011;36654;45.042;38.994;2022-12-07T14:13:21;32.05;;;12.93;;
50683;SDS011;36654;45.042;38.994;2022-12-07T14:15:50;29.17;;;13.20;;
50683;SDS011;36654;45.042;38.994;2022-12-07T14:21:21;28.35;;;12.93;;
50683;SDS011;36654;45.042;38.994;2022-12-07T14:26:35;28.33;;;12.70;;
50683;SDS011;36654;45.042;38.994;2022-12-07T14:29:18;28.35;;;13.07;;
50683;SDS011;36654;45.042;38.994;2022-12-07T14:31:50;25.67;;;11.57;;
50683;SDS011;36654;45.042;38.994;2022-12-07T14:34:19;25.52;;;11.77;;
50683;SDS011;36654;45.042;38.994;2022-12-07T14:36:46;31.30;;;12.38;;
50683;SDS011;36654;45.042;38.994;2022-12-07T14:39:12;21.98;;;11.02;;
50683;SDS011;36654;45.042;38.994;2022-12-07T14:41:37;27.02;;;11.95;;
50683;SDS011;36654;45.042;38.994;2022-12-07T14:44:18;24.48;;;11.40;;
50683;SDS011;36654;45.042;38.994;2022-12-07T14:46:46;26.40;;;12.10;;
50683;SDS011;36654;45.042;38.994;2022-12-07T14:49:12;26.90;;;12.35;;
50683;SDS011;36654;45.042;38.994;2022-12-07T14:51:39;28.27;;;13.07;;
50683;SDS011;36654;45.042;38.994;2022-12-07T14:54:17;25.95;;;12.38;;
50683;SDS011;36654;45.042;38.994;2022-12-07T14:56:45;28.63;;;12.85;;
50683;SDS011;36654;45.042;38.994;2022-12-07T14:59:15;29.13;;;13.50;;
50683;SDS011;36654;45.042;38.994;2022-12-07T15:01:41;31.63;;;12.65;;
50683;SDS011;36654;45.042;38.994;2022-12-07T15:04:07;24.80;;;11.82;;
50683;SDS011;36654;45.042;38.994;2022-12-07T15:06:33;25.75;;;13.27;;
50683;SDS011;36654;45.042;38.994;2022-12-07T15:08:59;29.17;;;13.60;;
50683;SDS011;36654;45.042;38.994;2022-12-07T15:11:24;31.08;;;15.40;;
50683;SDS011;36654;45.042;38.994;2022-12-07T15:13:50;29.77;;;14.68;;
50683;SDS011;36654;45.042;38.994;2022-12-07T15:16:36;34.33;;;15.90;;
50683;SDS011;36654;45.042;38.994;2022-12-07T15:21:30;35.03;;;14.70;;
50683;SDS011;36654;45.042;38.994;2022-12-07T15:23:56;30.67;;;14.00;;
50683;SDS011;36654;45.042;38.994;2022-12-07T15:26:22;21.73;;;12.60;;
50683;SDS011;36654;45.042;38.994;2022-12-07T15:28:47;30.88;;;13.45;;
50683;SDS011;36654;45.042;38.994;2022-12-07T15:31:14;33.20;;;14.07;;
50683;SDS011;36654;45.042;38.994;2022-12-07T15:33:40;27.33;;;13.07;;
50683;SDS011;36654;45.042;38.994;2022-12-07T15:36:06;25.88;;;12.80;;
50683;SDS011;36654;45.042;38.994;2022-12-07T15:38:32;27.38;;;13.20;;
50683;SDS011;36654;45.042;38.994;2022-12-07T15:40:58;28.45;;;12.23;;
50683;SDS011;36654;45.042;38.994;2022-12-07T15:43:23;26.50;;;12.98;;
50683;SDS011;36654;45.042;38.994;2022-12-07T15:46:07;25.73;;;11.98;;
50683;SDS011;36654;45.042;38.994;2022-12-07T15:48:33;27.52;;;12.85;;
50683;SDS011;36654;45.042;38.994;2022-12-07T15:51:03;26.67;;;13.07;;
50683;SDS011;36654;45.042;38.994;2022-12-07T15:53:33;25.45;;;12.68;;
50683;SDS011;36654;45.042;38.994;2022-12-07T15:55:59;26.10;;;12.27;;
50683;SDS011;36654;45.042;38.994;2022-12-07T15:58:25;24.48;;;12.10;;
50683;SDS011;36654;45.042;38.994;2022-12-07T16:00:51;23.55;;;11.48;;
50683;SDS011;36654;45.042;38.994;2022-12-07T16:03:18;23.15;;;12.82;;
50683;SDS011;36654;45.042;38.994;2022-12-07T16:05:50;23.60;;;12.32;;
50683;SDS011;36654;45.042;38.994;2022-12-07T16:08:16;27.15;;;14.05;;
50683;SDS011;36654;45.042;38.994;2022-12-07T16:10:42;25.77;;;12.77;;
50683;SDS011;36654;45.042;38.994;2022-12-07T16:13:08;26.70;;;12.63;;
50683;SDS011;36654;45.042;38.994;2022-12-07T16:15:40;26.92;;;12.68;;
50683;SDS011;36654;45.042;38.994;2022-12-07T16:18:07;26.88;;;12.63;;
50683;SDS011;36654;45.042;38.994;2022-12-07T16:20:33;29.48;;;13.18;;
50683;SDS011;36654;45.042;38.994;2022-12-07T16:22:59;23.98;;;12.15;;
50683;SDS011;36654;45.042;38.994;2022-12-07T16:25:25;23.05;;;11.98;;
50683;SDS011;36654;45.042;38.994;2022-12-07T16:27:51;29.95;;;13.25;;
50683;SDS011;36654;45.042;38.994;2022-12-07T16:30:17;22.98;;;13.10;;
50683;SDS011;36654;45.042;38.994;2022-12-07T16:32:43;26.95;;;13.43;;
50683;SDS011;36654;45.042;38.994;2022-12-07T16:35:09;30.05;;;13.15;;
50683;SDS011;36654;45.042;38.994;2022-12-07T16:37:35;30.83;;;13.98;;
50683;SDS011;36654;45.042;38.994;2022-12-07T16:40:01;27.70;;;14.05;;
50683;SDS011;36654;45.042;38.994;2022-12-07T16:42:26;31.42;;;14.02;;
50683;SDS011;36654;45.042;38.994;2022-12-07T16:44:56;29.02;;;14.07;;
50683;SDS011;36654;45.042;38.994;2022-12-07T16:47:21;32.10;;;12.57;;
50683;SDS011;36654;45.042;38.994;2022-12-07T16:49:47;32.22;;;14.50;;
50683;SDS011;36654;45.042;38.994;2022-12-07T16:52:13;26.33;;;13.50;;